sensor_id;sensor_type;location;lat;lon;timestamp;pressure;altitude;pressure_sealevel;temperature;humidity
56518;BME280;42419;48.760;2.322;2023-02-15T00:01:11;101963.53;;;23.04;36.72
56518;BME280;42419;48.760;2.322;2023-02-15T00:03:37;101953.06;;;22.95;36.47
56518;BME280;42419;48.760;2.322;2023-02-15T00:06:03;101963.53;;;23.04;36.43
56518;BME280;42419;48.760;2.322;2023-02-15T00:08:29;101970.69;;;23.03;36.08
56518;BME280;42419;48.760;2.322;2023-02-15T00:11:06;101952.13;;;22.97;36.59
56518;BME280;42419;48.760;2.322;2023-02-15T00:13:32;101931.81;;;22.89;36.07
56518;BME280;42419;48.760;2.322;2023-02-15T00:16:06;101935.31;;;22.91;36.07
56518;BME280;42419;48.760;2.322;2023-02-15T00:18:31;101950.16;;;23.02;36.24
56518;BME280;42419;48.760;2.322;2023-02-15T00:20:57;101936.00;;;22.97;35.87
56518;BME280;42419;48.760;2.322;2023-02-15T00:23:23;101951.97;;;23.02;35.79
56518;BME280;42419;48.760;2.322;2023-02-15T00:25:49;101953.69;;;23.03;35.82
56518;BME280;42419;48.760;2.322;2023-02-15T00:28:17;101934.22;;;22.96;35.90
56518;BME280;42419;48.760;2.322;2023-02-15T00:30:42;101943.91;;;23.02;35.74
56518;BME280;42419;48.760;2.322;2023-02-15T00:33:08;101948.41;;;23.01;35.96
56518;BME280;42419;48.760;2.322;2023-02-15T00:35:33;101924.53;;;22.92;35.65
56518;BME280;42419;48.760;2.322;2023-02-15T00:37:58;101935.03;;;22.98;35.75
56518;BME280;42419;48.760;2.322;2023-02-15T00:40:24;101912.91;;;22.92;35.32
56518;BME280;42419;48.760;2.322;2023-02-15T00:42:49;101912.78;;;22.95;35.49
56518;BME280;42419;48.760;2.322;2023-02-15T00:45:14;101923.59;;;22.93;35.30
56518;BME280;42419;48.760;2.322;2023-02-15T00:47:40;101931.41;;;23.01;35.57
56518;BME280;42419;48.760;2.322;2023-02-15T00:50:05;101932.28;;;23.01;35.17
56518;BME280;42419;48.760;2.322;2023-02-15T00:52:31;101931.41;;;23.01;35.10
56518;BME280;42419;48.760;2.322;2023-02-15T00:54:56;101919.06;;;22.94;35.28
56518;BME280;42419;48.760;2.322;2023-02-15T00:57:22;101928.72;;;23.01;35.03
56518;BME280;42419;48.760;2.322;2023-02-15T00:59:47;101926.94;;;23.00;35.17
56518;BME280;42419;48.760;2.322;2023-02-15T01:02:12;101926.03;;;23.01;35.23
56518;BME280;42419;48.760;2.322;2023-02-15T01:04:38;101929.63;;;23.00;34.99
56518;BME280;42419;48.760;2.322;2023-02-15T01:07:03;101919.00;;;22.97;34.87
56518;BME280;42419;48.760;2.322;2023-02-15T01:09:29;101919.81;;;22.99;35.01
56518;BME280;42419;48.760;2.322;2023-02-15T01:11:54;101915.41;;;22.98;35.00
56518;BME280;42419;48.760;2.322;2023-02-15T01:14:19;101896.94;;;22.87;34.81
56518;BME280;42419;48.760;2.322;2023-02-15T01:16:45;101903.81;;;22.96;34.71
56518;BME280;42419;48.760;2.322;2023-02-15T01:19:10;101918.00;;;22.99;34.61
56518;BME280;42419;48.760;2.322;2023-02-15T01:21:35;101894.91;;;22.94;34.87
56518;BME280;42419;48.760;2.322;2023-02-15T01:24:01;101906.38;;;22.99;34.46
56518;BME280;42419;48.760;2.322;2023-02-15T01:26:26;101901.00;;;22.99;34.66
56518;BME280;42419;48.760;2.322;2023-02-15T01:28:52;101911.75;;;22.99;34.44
56518;BME280;42419;48.760;2.322;2023-02-15T01:31:20;101904.56;;;22.99;34.42
56518;BME280;42419;48.760;2.322;2023-02-15T01:33:46;101911.75;;;22.99;34.28
56518;BME280;42419;48.760;2.322;2023-02-15T01:36:13;101917.13;;;22.99;34.36
56518;BME280;42419;48.760;2.322;2023-02-15T01:38:39;101914.44;;;22.99;34.34
56518;BME280;42419;48.760;2.322;2023-02-15T01:41:05;101903.97;;;22.91;34.56
56518;BME280;42419;48.760;2.322;2023-02-15T01:43:56;101911.75;;;22.99;34.18
56518;BME280;42419;48.760;2.322;2023-02-15T01:46:26;101908.19;;;22.98;34.16
56518;BME280;42419;48.760;2.322;2023-02-15T01:49:07;101901.97;;;22.98;34.11
56518;BME280;42419;48.760;2.322;2023-02-15T01:51:35;101910.03;;;22.98;33.99
56518;BME280;42419;48.760;2.322;2023-02-15T01:54:39;101911.75;;;22.99;33.93
56518;BME280;42419;48.760;2.322;2023-02-15T01:57:03;101906.38;;;22.99;34.10
56518;BME280;42419;48.760;2.322;2023-02-15T01:59:31;101899.22;;;22.99;33.96
56518;BME280;42419;48.760;2.322;2023-02-15T02:01:59;101891.25;;;22.96;33.90
56518;BME280;42419;48.760;2.322;2023-02-15T02:04:33;101883.25;;;22.95;33.59
56518;BME280;42419;48.760;2.322;2023-02-15T02:07:00;101896.47;;;23.01;33.90
56518;BME280;42419;48.760;2.322;2023-02-15T02:09:26;101878.91;;;22.91;34.00
56518;BME280;42419;48.760;2.322;2023-02-15T02:11:51;101878.78;;;22.94;33.93
56518;BME280;42419;48.760;2.322;2023-02-15T02:14:19;101893.78;;;23.01;33.69
56518;BME280;42419;48.760;2.322;2023-02-15T02:16:58;101889.34;;;23.00;33.46
56518;BME280;42419;48.760;2.322;2023-02-15T02:27:51;101888.47;;;22.99;33.40
56518;BME280;42419;48.760;2.322;2023-02-15T02:33:19;101889.38;;;22.98;33.40
56518;BME280;42419;48.760;2.322;2023-02-15T02:36:00;101884.97;;;22.97;33.58
56518;BME280;42419;48.760;2.322;2023-02-15T02:41:42;101872.47;;;22.96;33.22
56518;BME280;42419;48.760;2.322;2023-02-15T02:44:23;101877.84;;;22.96;33.17
56518;BME280;42419;48.760;2.322;2023-02-15T02:46:53;101860.09;;;22.91;33.02
56518;BME280;42419;48.760;2.322;2023-02-15T02:52:05;101860.84;;;22.96;33.08
56518;BME280;42419;48.760;2.322;2023-02-15T02:54:33;101862.63;;;22.95;33.26
56518;BME280;42419;48.760;2.322;2023-02-15T02:57:03;101851.00;;;22.95;33.12
56518;BME280;42419;48.760;2.322;2023-02-15T02:59:35;101859.03;;;22.96;32.91
56518;BME280;42419;48.760;2.322;2023-02-15T03:02:08;101818.91;;;22.65;32.99
56518;BME280;42419;48.760;2.322;2023-02-15T03:04:40;101875.16;;;22.96;32.63
56518;BME280;42419;48.760;2.322;2023-02-15T03:07:10;101878.75;;;22.95;32.83
56518;BME280;42419;48.760;2.322;2023-02-15T03:09:42;101874.25;;;22.96;32.68
56518;BME280;42419;48.760;2.322;2023-02-15T03:12:14;101871.56;;;22.96;32.86
56518;BME280;42419;48.760;2.322;2023-02-15T03:14:42;101874.25;;;22.96;32.89
56518;BME280;42419;48.760;2.322;2023-02-15T03:17:11;101858.41;;;22.88;32.75
56518;BME280;42419;48.760;2.322;2023-02-15T03:19:38;101869.78;;;22.96;32.66
56518;BME280;42419;48.760;2.322;2023-02-15T03:22:12;101875.16;;;22.96;32.67
56518;BME280;42419;48.760;2.322;2023-02-15T03:24:57;101852.16;;;22.88;32.55
56518;BME280;42419;48.760;2.322;2023-02-15T03:27:27;101859.91;;;22.97;32.59
56518;BME280;42419;48.760;2.322;2023-02-15T03:29:58;101773.72;;;22.50;32.81
56518;BME280;42419;48.760;2.322;2023-02-15T03:32:25;101860.72;;;22.99;32.58
56518;BME280;42419;48.760;2.322;2023-02-15T03:34:53;101860.72;;;22.99;32.59
56518;BME280;42419;48.760;2.322;2023-02-15T03:39:49;101868.78;;;22.99;32.64
56518;BME280;42419;48.760;2.322;2023-02-15T03:42:31;101867.84;;;23.00;32.49
56518;BME280;42419;48.760;2.322;2023-02-15T03:45:02;101866.09;;;22.99;32.42
56518;BME280;42419;48.760;2.322;2023-02-15T03:47:36;101861.59;;;22.99;32.33
56518;BME280;42419;48.760;2.322;2023-02-15T03:50:06;101860.69;;;23.00;32.59
56518;BME280;42419;48.760;2.322;2023-02-15T03:52:54;101861.66;;;22.98;32.51
56518;BME280;42419;48.760;2.322;2023-02-15T03:55:20;101864.28;;;22.99;32.40
56518;BME280;42419;48.760;2.322;2023-02-15T03:57:45;101864.25;;;23.01;32.44
56518;BME280;42419;48.760;2.322;2023-02-15T04:00:31;101855.31;;;23.00;32.55
56518;BME280;42419;48.760;2.322;2023-02-15T04:03:29;101861.59;;;22.99;32.22
56518;BME280;42419;48.760;2.322;2023-02-15T04:05:56;101869.66;;;22.99;32.39
56518;BME280;42419;48.760;2.322;2023-02-15T04:08:22;101868.78;;;22.99;32.37
56518;BME280;42419;48.760;2.322;2023-02-15T04:11:07;101854.56;;;22.95;32.47
56518;BME280;42419;48.760;2.322;2023-02-15T04:13:32;101858.91;;;22.99;32.32
56518;BME280;42419;48.760;2.322;2023-02-15T04:15:58;101858.09;;;22.97;32.29
56518;BME280;42419;48.760;2.322;2023-02-15T04:18:35;101862.44;;;23.01;32.24
56518;BME280;42419;48.760;2.322;2023-02-15T04:21:21;101858.91;;;22.99;32.14
56518;BME280;42419;48.760;2.322;2023-02-15T04:24:05;101858.00;;;23.00;32.42
56518;BME280;42419;48.760;2.322;2023-02-15T04:26:49;101842.34;;;22.87;32.43
56518;BME280;42419;48.760;2.322;2023-02-15T04:29:18;101859.84;;;22.98;32.12
56518;BME280;42419;48.760;2.322;2023-02-15T04:31:44;101855.47;;;22.96;32.12
56518;BME280;42419;48.760;2.322;2023-02-15T04:34:09;101866.06;;;23.00;32.38
56518;BME280;42419;48.760;2.322;2023-02-15T04:36:36;101857.16;;;22.98;32.18
56518;BME280;42419;48.760;2.322;2023-02-15T04:39:02;101858.88;;;23.01;32.27
56518;BME280;42419;48.760;2.322;2023-02-15T04:41:28;101858.88;;;23.01;32.12
56518;BME280;42419;48.760;2.322;2023-02-15T04:43:53;101838.63;;;22.91;32.05
56518;BME280;42419;48.760;2.322;2023-02-15T04:46:18;101866.00;;;23.02;31.85
56518;BME280;42419;48.760;2.322;2023-02-15T04:48:44;101856.22;;;22.99;32.25
56518;BME280;42419;48.760;2.322;2023-02-15T04:51:09;101853.47;;;23.02;31.97
56518;BME280;42419;48.760;2.322;2023-02-15T04:53:35;101856.16;;;23.02;31.93
56518;BME280;42419;48.760;2.322;2023-02-15T04:56:00;101799.94;;;22.70;31.97
56518;BME280;42419;48.760;2.322;2023-02-15T04:58:26;101863.25;;;23.03;32.13
56518;BME280;42419;48.760;2.322;2023-02-15T05:00:54;101860.56;;;23.03;31.90
56518;BME280;42419;48.760;2.322;2023-02-15T05:03:20;101852.72;;;22.97;31.99
56518;BME280;42419;48.760;2.322;2023-02-15T05:05:45;101864.13;;;23.04;32.03
56518;BME280;42419;48.760;2.322;2023-02-15T05:08:11;101843.06;;;22.92;32.01
56518;BME280;42419;48.760;2.322;2023-02-15T05:10:36;101844.72;;;22.96;32.05
56518;BME280;42419;48.760;2.322;2023-02-15T05:13:01;101854.31;;;23.03;31.94
56518;BME280;42419;48.760;2.322;2023-02-15T05:15:26;101857.88;;;23.03;32.25
56518;BME280;42419;48.760;2.322;2023-02-15T05:17:52;101847.22;;;23.02;31.73
56518;BME280;42419;48.760;2.322;2023-02-15T05:20:17;101849.81;;;23.03;31.90
56518;BME280;42419;48.760;2.322;2023-02-15T05:22:44;101846.31;;;23.01;32.15
56518;BME280;42419;48.760;2.322;2023-02-15T05:25:09;101848.94;;;23.03;31.86
56518;BME280;42419;48.760;2.322;2023-02-15T05:27:53;101854.31;;;23.03;32.19
56518;BME280;42419;48.760;2.322;2023-02-15T05:30:37;101854.31;;;23.03;31.75
56518;BME280;42419;48.760;2.322;2023-02-15T05:33:05;101812.16;;;22.80;32.01
56518;BME280;42419;48.760;2.322;2023-02-15T05:35:31;101854.31;;;23.03;32.17
56518;BME280;42419;48.760;2.322;2023-02-15T05:37:57;101849.88;;;23.02;31.86
56518;BME280;42419;48.760;2.322;2023-02-15T05:40:22;101832.38;;;22.90;32.03
56518;BME280;42419;48.760;2.322;2023-02-15T05:42:47;101843.63;;;23.01;32.13
56518;BME280;42419;48.760;2.322;2023-02-15T05:45:16;101839.16;;;23.02;31.75
56518;BME280;42419;48.760;2.322;2023-02-15T05:47:42;101839.94;;;23.04;31.88
56518;BME280;42419;48.760;2.322;2023-02-15T05:50:08;101839.19;;;23.00;32.07
56518;BME280;42419;48.760;2.322;2023-02-15T05:52:34;101833.69;;;23.03;31.94
56518;BME280;42419;48.760;2.322;2023-02-15T05:55:00;101832.78;;;23.04;31.83
56518;BME280;42419;48.760;2.322;2023-02-15T05:57:26;101830.97;;;23.05;31.78
56518;BME280;42419;48.760;2.322;2023-02-15T05:59:51;101829.13;;;23.07;32.13
56518;BME280;42419;48.760;2.322;2023-02-15T06:02:17;101838.03;;;23.07;31.79
56518;BME280;42419;48.760;2.322;2023-02-15T06:04:42;101841.59;;;23.08;31.73
56518;BME280;42419;48.760;2.322;2023-02-15T06:07:07;101838.88;;;23.09;31.55
56518;BME280;42419;48.760;2.322;2023-02-15T06:09:33;101829.97;;;23.07;31.64
56518;BME280;42419;48.760;2.322;2023-02-15T06:11:58;101831.66;;;23.11;31.49
56518;BME280;42419;48.760;2.322;2023-02-15T06:14:23;101840.56;;;23.12;31.46
56518;BME280;42419;48.760;2.322;2023-02-15T06:16:48;101836.94;;;23.13;31.53
56518;BME280;42419;48.760;2.322;2023-02-15T06:19:14;101831.53;;;23.14;31.56
56518;BME280;42419;48.760;2.322;2023-02-15T06:21:39;101832.41;;;23.15;31.95
56518;BME280;42419;48.760;2.322;2023-02-15T06:24:05;101837.78;;;23.15;31.66
56518;BME280;42419;48.760;2.322;2023-02-15T06:26:30;101844.03;;;23.15;31.86
56518;BME280;42419;48.760;2.322;2023-02-15T06:28:55;101832.41;;;23.15;31.88
56518;BME280;42419;48.760;2.322;2023-02-15T06:31:21;101840.41;;;23.16;31.38
56518;BME280;42419;48.760;2.322;2023-02-15T06:33:46;101842.16;;;23.17;31.71
56518;BME280;42419;48.760;2.322;2023-02-15T06:36:11;101830.78;;;23.11;31.63
56518;BME280;42419;48.760;2.322;2023-02-15T06:38:37;101832.28;;;23.18;31.65
56518;BME280;42419;48.760;2.322;2023-02-15T06:41:03;101830.50;;;23.18;31.79
56518;BME280;42419;48.760;2.322;2023-02-15T06:43:28;101823.47;;;23.14;31.62
56518;BME280;42419;48.760;2.322;2023-02-15T06:45:53;101837.66;;;23.18;31.45
56518;BME280;42419;48.760;2.322;2023-02-15T06:48:19;101834.97;;;23.18;31.40
56518;BME280;42419;48.760;2.322;2023-02-15T06:50:44;101843.97;;;23.17;31.51
56518;BME280;42419;48.760;2.322;2023-02-15T06:53:09;101845.78;;;23.16;31.70
56518;BME280;42419;48.760;2.322;2023-02-15T06:55:35;101860.09;;;23.17;31.64
56518;BME280;42419;48.760;2.322;2023-02-15T06:58:00;101853.78;;;23.18;31.36
56518;BME280;42419;48.760;2.322;2023-02-15T07:00:26;101855.63;;;23.16;31.65
56518;BME280;42419;48.760;2.322;2023-02-15T07:02:55;101866.31;;;23.19;31.67
56518;BME280;42419;48.760;2.322;2023-02-15T07:05:22;101858.41;;;23.14;31.74
56518;BME280;42419;48.760;2.322;2023-02-15T07:07:47;101875.22;;;23.21;31.94
56518;BME280;42419;48.760;2.322;2023-02-15T07:10:13;101869.03;;;23.17;32.01
56518;BME280;42419;48.760;2.322;2023-02-15T07:12:38;101875.13;;;23.24;31.91
56518;BME280;42419;48.760;2.322;2023-02-15T07:15:07;101883.09;;;23.25;31.85
56518;BME280;42419;48.760;2.322;2023-02-15T07:17:35;101858.53;;;23.11;32.01
56518;BME280;42419;48.760;2.322;2023-02-15T07:20:00;101879.47;;;23.28;31.82
56518;BME280;42419;48.760;2.322;2023-02-15T07:22:26;101882.06;;;23.29;31.99
56518;BME280;42419;48.760;2.322;2023-02-15T07:24:52;101887.41;;;23.31;31.98
56518;BME280;42419;48.760;2.322;2023-02-15T07:27:20;101886.47;;;23.32;32.06
56518;BME280;42419;48.760;2.322;2023-02-15T07:29:45;101890.94;;;23.33;31.95
56518;BME280;42419;48.760;2.322;2023-02-15T07:32:10;101890.97;;;23.32;31.83
56518;BME280;42419;48.760;2.322;2023-02-15T07:34:36;101891.00;;;23.30;31.96
56518;BME280;42419;48.760;2.322;2023-02-15T07:37:01;101887.44;;;23.29;31.44
56518;BME280;42419;48.760;2.322;2023-02-15T07:39:26;101888.44;;;23.27;31.67
56518;BME280;42419;48.760;2.322;2023-02-15T07:41:52;101892.81;;;23.29;31.61
56518;BME280;42419;48.760;2.322;2023-02-15T07:44:17;101889.28;;;23.29;31.29
56518;BME280;42419;48.760;2.322;2023-02-15T07:46:43;101896.38;;;23.30;31.27
56518;BME280;42419;48.760;2.322;2023-02-15T07:49:08;101891.88;;;23.31;31.49
56518;BME280;42419;48.760;2.322;2023-02-15T07:51:33;101890.28;;;23.25;31.34
56518;BME280;42419;48.760;2.322;2023-02-15T07:53:59;101898.31;;;23.26;31.44
56518;BME280;42419;48.760;2.322;2023-02-15T07:56:24;101904.41;;;23.32;31.50
56518;BME280;42419;48.760;2.322;2023-02-15T07:58:50;101905.28;;;23.32;31.18
56518;BME280;42419;48.760;2.322;2023-02-15T08:01:20;101904.41;;;23.32;31.23
56518;BME280;42419;48.760;2.322;2023-02-15T08:03:47;101909.81;;;23.30;31.11
56518;BME280;42419;48.760;2.322;2023-02-15T08:06:12;101904.41;;;23.32;31.25
56518;BME280;42419;48.760;2.322;2023-02-15T08:08:39;101893.69;;;23.30;31.12
56518;BME280;42419;48.760;2.322;2023-02-15T08:11:16;101894.59;;;23.31;31.02
56518;BME280;42419;48.760;2.322;2023-02-15T08:14:10;101906.16;;;23.33;30.99
56518;BME280;42419;48.760;2.322;2023-02-15T08:16:38;101905.28;;;23.32;30.86
56518;BME280;42419;48.760;2.322;2023-02-15T08:19:20;101904.41;;;23.32;30.81
56518;BME280;42419;48.760;2.322;2023-02-15T08:22:07;101911.59;;;23.31;30.69
56518;BME280;42419;48.760;2.322;2023-02-15T08:24:36;101914.28;;;23.31;31.04
56518;BME280;42419;48.760;2.322;2023-02-15T08:27:03;101908.91;;;23.31;31.00
56518;BME280;42419;48.760;2.322;2023-02-15T08:29:30;101905.31;;;23.31;30.95
56518;BME280;42419;48.760;2.322;2023-02-15T08:32:06;101913.38;;;23.31;30.80
56518;BME280;42419;48.760;2.322;2023-02-15T08:34:35;101908.84;;;23.33;30.75
56518;BME280;42419;48.760;2.322;2023-02-15T08:37:03;101900.84;;;23.31;30.83
56518;BME280;42419;48.760;2.322;2023-02-15T08:39:29;101895.47;;;23.31;30.66
56518;BME280;42419;48.760;2.322;2023-02-15T08:41:54;101876.03;;;23.23;30.86
56518;BME280;42419;48.760;2.322;2023-02-15T08:44:20;101895.41;;;23.33;30.75
56518;BME280;42419;48.760;2.322;2023-02-15T08:46:47;101889.22;;;23.31;30.75
56518;BME280;42419;48.760;2.322;2023-02-15T08:49:20;101891.13;;;23.27;30.60
56518;BME280;42419;48.760;2.322;2023-02-15T08:51:46;101884.88;;;23.26;30.66
56518;BME280;42419;48.760;2.322;2023-02-15T08:54:14;101890.94;;;23.33;30.40
56518;BME280;42419;48.760;2.322;2023-02-15T08:56:41;101885.56;;;23.33;30.42
56518;BME280;42419;48.760;2.322;2023-02-15T08:59:12;101876.81;;;23.26;30.64
56518;BME280;42419;48.760;2.322;2023-02-15T09:01:38;101894.38;;;23.37;30.38
56518;BME280;42419;48.760;2.322;2023-02-15T09:04:05;101889.00;;;23.37;30.30
56518;BME280;42419;48.760;2.322;2023-02-15T09:06:33;101872.44;;;23.24;30.05
56518;BME280;42419;48.760;2.322;2023-02-15T09:08:58;101896.13;;;23.38;30.29
56518;BME280;42419;48.760;2.322;2023-02-15T09:11:29;101889.78;;;23.40;30.57
56518;BME280;42419;48.760;2.322;2023-02-15T09:14:03;101890.59;;;23.42;30.58
56518;BME280;42419;48.760;2.322;2023-02-15T09:16:32;101884.34;;;23.42;30.76
56518;BME280;42419;48.760;2.322;2023-02-15T09:18:59;101892.34;;;23.43;30.91
56518;BME280;42419;48.760;2.322;2023-02-15T09:21:26;101887.84;;;23.44;30.71
56518;BME280;42419;48.760;2.322;2023-02-15T09:23:56;101895.88;;;23.45;30.71
56518;BME280;42419;48.760;2.322;2023-02-15T09:26:23;101896.63;;;23.49;30.92
56518;BME280;42419;48.760;2.322;2023-02-15T09:28:52;101901.13;;;23.48;30.62
56518;BME280;42419;48.760;2.322;2023-02-15T09:31:23;101912.75;;;23.49;30.70
56518;BME280;42419;48.760;2.322;2023-02-15T09:33:49;101909.16;;;23.50;30.88
56518;BME280;42419;48.760;2.322;2023-02-15T09:38:52;101910.06;;;23.49;30.55
56518;BME280;42419;48.760;2.322;2023-02-15T09:47:17;101920.94;;;23.46;30.64
56518;BME280;42419;48.760;2.322;2023-02-15T10:09:00;101927.41;;;23.40;30.69
56518;BME280;42419;48.760;2.322;2023-02-15T10:22:36;101928.28;;;23.41;30.66
56518;BME280;42419;48.760;2.322;2023-02-15T10:25:30;101924.66;;;23.42;30.68
56518;BME280;42419;48.760;2.322;2023-02-15T10:28:06;101929.03;;;23.44;30.54
56518;BME280;42419;48.760;2.322;2023-02-15T10:31:01;101929.00;;;23.46;30.42
56518;BME280;42419;48.760;2.322;2023-02-15T10:33:41;101912.31;;;23.36;30.49
56518;BME280;42419;48.760;2.322;2023-02-15T10:39:21;101934.94;;;23.55;30.50
56518;BME280;42419;48.760;2.322;2023-02-15T10:41:53;101933.94;;;23.58;30.54
56518;BME280;42419;48.760;2.322;2023-02-15T10:55:44;101920.88;;;23.72;30.52
56518;BME280;42419;48.760;2.322;2023-02-15T11:01:13;101928.78;;;23.77;30.63
56518;BME280;42419;48.760;2.322;2023-02-15T11:06:18;101925.97;;;23.80;30.16
56518;BME280;42419;48.760;2.322;2023-02-15T11:08:53;101914.75;;;23.68;30.26
56518;BME280;42419;48.760;2.322;2023-02-15T11:11:40;101932.06;;;23.85;30.34
56518;BME280;42419;48.760;2.322;2023-02-15T11:14:44;101924.88;;;23.87;30.40
56518;BME280;42419;48.760;2.322;2023-02-15T11:17:19;101923.91;;;23.88;30.57
56518;BME280;42419;48.760;2.322;2023-02-15T11:20:08;101922.91;;;23.92;30.71
56518;BME280;42419;48.760;2.322;2023-02-15T11:22:40;101897.09;;;23.86;30.53
56518;BME280;42419;48.760;2.322;2023-02-15T11:25:17;101915.50;;;23.97;30.40
56518;BME280;42419;48.760;2.322;2023-02-15T11:27:45;101920.72;;;24.01;30.51
56518;BME280;42419;48.760;2.322;2023-02-15T11:30:19;101892.34;;;23.93;30.84
56518;BME280;42419;48.760;2.322;2023-02-15T11:32:47;101905.38;;;24.05;30.63
56518;BME280;42419;48.760;2.322;2023-02-15T11:37:50;101910.50;;;24.11;30.58
56518;BME280;42419;48.760;2.322;2023-02-15T11:43:05;101895.41;;;24.07;30.57
56518;BME280;42419;48.760;2.322;2023-02-15T11:45:33;101882.78;;;24.09;30.29
56518;BME280;42419;48.760;2.322;2023-02-15T11:48:00;101902.19;;;24.17;30.34
56518;BME280;42419;48.760;2.322;2023-02-15T11:50:31;101895.94;;;24.16;30.57
56518;BME280;42419;48.760;2.322;2023-02-15T11:53:03;101897.63;;;24.19;30.60
56518;BME280;42419;48.760;2.322;2023-02-15T11:55:30;101887.69;;;24.21;30.35
56518;BME280;42419;48.760;2.322;2023-02-15T11:58:04;101890.38;;;24.21;30.35
56518;BME280;42419;48.760;2.322;2023-02-15T12:00:40;101884.94;;;24.23;30.28
56518;BME280;42419;48.760;2.322;2023-02-15T12:03:13;101881.28;;;24.24;30.09
56518;BME280;42419;48.760;2.322;2023-02-15T12:05:42;101877.72;;;24.23;30.64
56518;BME280;42419;48.760;2.322;2023-02-15T12:08:15;101892.00;;;24.25;30.23
56518;BME280;42419;48.760;2.322;2023-02-15T12:10:46;101881.28;;;24.24;30.32
56518;BME280;42419;48.760;2.322;2023-02-15T12:13:19;101887.50;;;24.26;30.23
56518;BME280;42419;48.760;2.322;2023-02-15T12:15:50;101883.94;;;24.25;30.59
56518;BME280;42419;48.760;2.322;2023-02-15T12:18:33;101889.28;;;24.27;30.16
56518;BME280;42419;48.760;2.322;2023-02-15T12:21:03;101891.09;;;24.26;30.04
56518;BME280;42419;48.760;2.322;2023-02-15T12:23:32;101882.13;;;24.26;30.17
56518;BME280;42419;48.760;2.322;2023-02-15T12:25:58;101869.78;;;24.20;30.12
56518;BME280;42419;48.760;2.322;2023-02-15T12:28:32;101877.66;;;24.25;30.24
56518;BME280;42419;48.760;2.322;2023-02-15T12:31:00;101878.59;;;24.24;29.76
56518;BME280;42419;48.760;2.322;2023-02-15T12:33:41;101877.81;;;24.22;29.76
56518;BME280;42419;48.760;2.322;2023-02-15T12:36:29;101876.03;;;24.21;29.84
56518;BME280;42419;48.760;2.322;2023-02-15T12:39:22;101877.94;;;24.19;30.10
56518;BME280;42419;48.760;2.322;2023-02-15T12:44:23;101874.41;;;24.16;30.07
56518;BME280;42419;48.760;2.322;2023-02-15T12:47:03;101884.25;;;24.17;30.17
56518;BME280;42419;48.760;2.322;2023-02-15T12:49:38;101877.09;;;24.16;30.19
56518;BME280;42419;48.760;2.322;2023-02-15T12:54:47;101875.28;;;24.17;29.96
56518;BME280;42419;48.760;2.322;2023-02-15T12:57:33;101879.78;;;24.16;30.06
56518;BME280;42419;48.760;2.322;2023-02-15T13:05:29;101868.28;;;24.13;30.36
56518;BME280;42419;48.760;2.322;2023-02-15T13:08:10;101853.28;;;24.06;30.05
56518;BME280;42419;48.760;2.322;2023-02-15T13:11:25;101863.81;;;24.12;30.32
56518;BME280;42419;48.760;2.322;2023-02-15T13:13:30;101865.69;;;24.10;30.50
56518;BME280;42419;48.760;2.322;2023-02-15T13:16:00;101865.94;;;24.04;30.33
56518;BME280;42419;48.760;2.322;2023-02-15T13:18:35;101857.72;;;24.07;30.26
56518;BME280;42419;48.760;2.322;2023-02-15T13:21:26;101864.94;;;24.06;30.20
56518;BME280;42419;48.760;2.322;2023-02-15T13:24:00;101858.97;;;23.98;30.42
56518;BME280;42419;48.760;2.322;2023-02-15T13:26:30;101862.41;;;24.02;30.52
56518;BME280;42419;48.760;2.322;2023-02-15T13:28:58;101853.47;;;24.01;30.14
56518;BME280;42419;48.760;2.322;2023-02-15T13:31:28;101849.97;;;23.99;30.42
56518;BME280;42419;48.760;2.322;2023-02-15T13:34:02;101857.19;;;23.97;30.38
56518;BME280;42419;48.760;2.322;2023-02-15T13:36:51;101851.06;;;23.94;30.17
56518;BME280;42419;48.760;2.322;2023-02-15T13:42:47;101816.00;;;23.72;30.45
56518;BME280;42419;48.760;2.322;2023-02-15T13:48:16;101842.38;;;23.87;30.22
56518;BME280;42419;48.760;2.322;2023-02-15T13:50:52;101840.63;;;23.85;30.67
56518;BME280;42419;48.760;2.322;2023-02-15T14:04:42;101831.25;;;23.71;30.33
56518;BME280;42419;48.760;2.322;2023-02-15T14:07:23;101830.44;;;23.69;30.14
56518;BME280;42419;48.760;2.322;2023-02-15T14:10:18;101826.06;;;23.67;30.34
56518;BME280;42419;48.760;2.322;2023-02-15T14:15:58;101816.41;;;23.61;30.25
56518;BME280;42419;48.760;2.322;2023-02-15T14:32:00;101800.16;;;23.41;30.31
56518;BME280;42419;48.760;2.322;2023-02-15T14:34:56;101818.66;;;23.49;30.40
56518;BME280;42419;48.760;2.322;2023-02-15T14:40:00;101817.91;;;23.45;30.62
56518;BME280;42419;48.760;2.322;2023-02-15T14:45:35;101825.13;;;23.43;30.51
56518;BME280;42419;48.760;2.322;2023-02-15T14:48:45;101829.63;;;23.43;30.43
56518;BME280;42419;48.760;2.322;2023-02-15T14:51:02;101819.88;;;23.40;30.40
56518;BME280;42419;48.760;2.322;2023-02-15T14:53:38;101817.38;;;23.36;30.50
56518;BME280;42419;48.760;2.322;2023-02-15T14:59:07;101817.31;;;23.37;30.33
56518;BME280;42419;48.760;2.322;2023-02-15T15:01:40;101806.91;;;23.28;30.31
56518;BME280;42419;48.760;2.322;2023-02-15T15:04:21;101813.78;;;23.35;30.51
56518;BME280;42419;48.760;2.322;2023-02-15T15:07:20;101812.03;;;23.34;30.42
56518;BME280;42419;48.760;2.322;2023-02-15T15:09:46;101815.59;;;23.35;30.25
56518;BME280;42419;48.760;2.322;2023-02-15T15:12:14;101810.22;;;23.35;30.06
56518;BME280;42419;48.760;2.322;2023-02-15T15:14:43;101804.13;;;23.29;30.10
56518;BME280;42419;48.760;2.322;2023-02-15T15:20:13;101806.66;;;23.34;30.24
56518;BME280;42419;48.760;2.322;2023-02-15T15:25:46;101795.97;;;23.33;30.51
56518;BME280;42419;48.760;2.322;2023-02-15T15:31:31;101800.47;;;23.32;30.43
56518;BME280;42419;48.760;2.322;2023-02-15T15:50:41;101790.88;;;23.25;30.47